Terminal Aerodrome Forecast
Issued by NWS Cleveland, OH

Home | Current Version | Previous Version | Text Only | Print | Product List | Glossary Off
Versions: 1 2 3 4 5 6 7 8 9 10 11 12 13

000
FTUS41 KCLE 302327
TAFTOL
TAF
KTOL 302327Z 3100/3124 26006KT P6SM SKC
     FM311600 26012G22KT P6SM SCT050
     FM312200 27012KT P6SM VCTS SCT050CB BKN150=

USA.gov is the U.S. government's official web portal to all federal, state and local government web resources and services.